Terminal Aerodrome Forecast
Issued by NWS Melbourne, FL

Current Version | Previous Version | Text Only | Print | Product List | Glossary On
Versions: 1 2 3 4 5 6 7 8 9 10 11 12 13 14 15 16 17 18 19
000
FTUS42 KMLB 171123
TAFDAB
TAF
KDAB 171123Z 1712/1812 01012G18KT P6SM VCSH SCT009 BKN025
      TEMPO 1712/1714 01014G24KT 2SM +SHRA BKN010
     FM171400 03016G26KT 5SM -SHRA SCT015 OVC025
      TEMPO 1714/1718 3SM SHRA BKN015
     FM180000 04011KT P6SM -SHRA OVC025=

USA.gov is the U.S. government's official web portal to all federal, state and local government web resources and services.